createdAt,value
2023-04-09T00:01:09.148Z,15.70
2023-04-09T00:03:54.855Z,11.77
2023-04-09T00:06:40.522Z,6.85
2023-04-09T00:09:26.229Z,6.68
2023-04-09T00:12:11.857Z,7.63
2023-04-09T00:14:57.718Z,9.68
2023-04-09T00:17:43.251Z,7.93
2023-04-09T00:20:28.649Z,5.47
2023-04-09T00:23:14.264Z,11.35
2023-04-09T00:26:01.005Z,4.03
2023-04-09T00:28:46.280Z,7.43
2023-04-09T00:31:31.825Z,6.70
2023-04-09T00:34:17.717Z,5.28
2023-04-09T00:37:03.130Z,6.35
2023-04-09T00:39:48.477Z,6.80
2023-04-09T00:42:36.013Z,5.07
2023-04-09T00:45:23.104Z,8.45
2023-04-09T00:48:08.843Z,10.50
2023-04-09T00:50:54.144Z,8.73
2023-04-09T00:53:39.836Z,10.82
2023-04-09T00:56:27.314Z,11.15
2023-04-09T00:59:13.084Z,9.55
2023-04-09T01:01:58.838Z,10.45
2023-04-09T01:04:44.801Z,10.23
2023-04-09T01:07:59.338Z,7.20
2023-04-09T01:10:59.671Z,10.63
2023-04-09T01:13:49.496Z,10.18
2023-04-09T01:16:38.033Z,8.30
2023-04-09T01:19:49.038Z,9.27
2023-04-09T01:22:56.053Z,5.45
2023-04-09T01:25:59.341Z,8.30
2023-04-09T01:28:57.117Z,12.48
2023-04-09T01:31:44.599Z,13.43
2023-04-09T01:34:31.218Z,7.97
2023-04-09T01:37:18.319Z,10.45
2023-04-09T01:40:05.024Z,11.38
2023-04-09T01:42:51.952Z,9.00
2023-04-09T01:45:38.213Z,7.78
2023-04-09T01:48:24.540Z,9.77
2023-04-09T01:51:10.411Z,13.02
2023-04-09T01:53:56.289Z,17.52
2023-04-09T01:56:44.062Z,9.15
2023-04-09T01:59:29.822Z,13.93
2023-04-09T02:02:28.695Z,6.32
2023-04-09T02:05:19.062Z,5.45
2023-04-09T02:08:08.283Z,7.35
2023-04-09T02:10:58.196Z,7.47
2023-04-09T02:13:44.301Z,7.88
2023-04-09T02:16:32.246Z,9.05
2023-04-09T02:19:17.851Z,10.15
2023-04-09T02:22:05.015Z,9.73
2023-04-09T02:24:50.625Z,18.05
2023-04-09T02:27:36.156Z,9.40
2023-04-09T02:30:21.774Z,9.65
2023-04-09T02:33:07.713Z,18.30
2023-04-09T02:35:53.255Z,12.20
2023-04-09T02:38:42.007Z,10.15
2023-04-09T02:41:27.497Z,12.52
2023-04-09T02:44:12.819Z,18.55
2023-04-09T02:46:58.275Z,9.82
2023-04-09T02:49:43.769Z,13.25
2023-04-09T02:52:29.613Z,9.50
2023-04-09T02:55:15.770Z,13.07
2023-04-09T02:58:01.344Z,13.60
2023-04-09T03:00:47.330Z,10.23
2023-04-09T03:03:33.220Z,6.10
2023-04-09T03:06:18.735Z,10.63
2023-04-09T03:09:04.633Z,7.72
2023-04-09T03:11:49.968Z,9.25
2023-04-09T03:14:35.448Z,13.00
2023-04-09T03:17:21.494Z,10.55
2023-04-09T03:20:07.988Z,8.18
2023-04-09T03:22:57.721Z,8.18
2023-04-09T03:25:50.070Z,19.45
2023-04-09T03:28:37.029Z,9.40
2023-04-09T03:31:22.469Z,8.32
2023-04-09T03:34:08.202Z,9.70
2023-04-09T03:36:54.157Z,12.98
2023-04-09T03:39:43.401Z,10.75
2023-04-09T03:42:29.440Z,12.82
2023-04-09T03:45:15.552Z,10.25
2023-04-09T03:48:04.576Z,11.10
2023-04-09T03:50:50.078Z,18.17
2023-04-09T03:53:43.246Z,8.85
2023-04-09T03:56:28.711Z,11.38
2023-04-09T03:59:14.381Z,9.40
2023-04-09T04:02:03.357Z,12.25
2023-04-09T04:04:51.333Z,12.70
2023-04-09T04:07:37.810Z,7.30
2023-04-09T04:10:28.895Z,15.68
2023-04-09T04:13:14.224Z,8.35
2023-04-09T04:16:10.295Z,14.77
2023-04-09T04:18:59.767Z,16.90
2023-04-09T04:21:46.689Z,12.80
2023-04-09T04:24:32.096Z,15.93
2023-04-09T04:27:17.952Z,12.20
2023-04-09T04:30:04.430Z,11.90
2023-04-09T04:33:07.937Z,9.70
2023-04-09T04:36:12.330Z,18.65
2023-04-09T04:39:01.265Z,15.50
2023-04-09T04:41:52.996Z,25.20
2023-04-09T04:44:41.859Z,12.82
2023-04-09T04:47:39.713Z,10.32
2023-04-09T04:50:25.564Z,14.20
2023-04-09T04:53:15.899Z,20.77
2023-04-09T04:56:07.074Z,21.23
2023-04-09T04:58:53.010Z,18.05
2023-04-09T05:01:39.887Z,16.55
2023-04-09T05:04:29.027Z,21.38
2023-04-09T05:07:15.706Z,15.70
2023-04-09T05:10:09.158Z,17.42
2023-04-09T05:12:58.860Z,10.85
2023-04-09T05:15:50.907Z,10.07
2023-04-09T05:18:36.683Z,15.73
2023-04-09T05:21:22.063Z,8.57
2023-04-09T05:24:09.829Z,15.88
2023-04-09T05:26:55.979Z,11.35
2023-04-09T05:29:42.351Z,10.35
2023-04-09T05:32:29.127Z,16.85
2023-04-09T05:35:15.482Z,11.23
2023-04-09T05:38:02.300Z,12.25
2023-04-09T05:40:49.157Z,11.90
2023-04-09T05:43:34.710Z,10.18
2023-04-09T05:46:20.363Z,12.82
2023-04-09T05:49:09.212Z,10.43
2023-04-09T05:51:56.202Z,12.35
2023-04-09T05:54:45.850Z,15.07
2023-04-09T05:57:35.482Z,13.02
2023-04-09T06:00:23.405Z,9.85
2023-04-09T06:03:09.971Z,21.15
2023-04-09T06:05:55.433Z,13.93
2023-04-09T06:08:40.751Z,12.43
2023-04-09T06:11:26.992Z,16.65
2023-04-09T06:14:16.573Z,16.50
2023-04-09T06:17:02.496Z,13.63
2023-04-09T06:19:47.895Z,19.63
2023-04-09T06:22:33.302Z,18.95
2023-04-09T06:25:18.782Z,13.90
2023-04-09T06:28:04.599Z,14.52
2023-04-09T06:30:50.601Z,19.50
2023-04-09T06:33:35.773Z,15.48
2023-04-09T06:36:21.593Z,12.75
2023-04-09T06:39:07.311Z,12.15
2023-04-09T06:41:52.673Z,11.70
2023-04-09T06:44:57.696Z,14.18
2023-04-09T06:47:43.135Z,12.50
2023-04-09T06:50:28.548Z,11.85
2023-04-09T06:53:15.336Z,12.73
2023-04-09T06:56:00.558Z,11.60
2023-04-09T06:58:46.048Z,13.38
2023-04-09T07:01:31.810Z,12.13
2023-04-09T07:04:17.726Z,20.33
2023-04-09T07:07:03.442Z,19.10
2023-04-09T07:09:49.155Z,23.27
2023-04-09T07:12:35.804Z,13.23
2023-04-09T07:15:21.505Z,13.88
2023-04-09T07:18:07.091Z,11.18
2023-04-09T07:20:53.784Z,14.35
2023-04-09T07:23:39.079Z,13.80
2023-04-09T07:26:24.414Z,9.52
2023-04-09T07:29:11.150Z,15.57
2023-04-09T07:31:56.449Z,11.90
2023-04-09T07:34:42.295Z,12.48
2023-04-09T07:37:27.717Z,13.35
2023-04-09T07:40:13.263Z,18.73
2023-04-09T07:42:58.683Z,14.38
2023-04-09T07:45:44.645Z,11.35
2023-04-09T07:48:30.329Z,15.38
2023-04-09T07:51:16.332Z,17.55
2023-04-09T07:54:01.786Z,13.93
2023-04-09T07:56:47.693Z,17.48
2023-04-09T07:59:35.165Z,14.60
2023-04-09T08:02:21.379Z,12.85
2023-04-09T08:05:07.937Z,14.07
2023-04-09T08:07:53.703Z,19.77
2023-04-09T08:10:39.197Z,11.75
2023-04-09T08:13:25.545Z,21.92
2023-04-09T08:16:10.875Z,14.05
2023-04-09T08:18:57.143Z,9.85
2023-04-09T08:21:48.897Z,11.15
2023-04-09T08:24:34.639Z,12.73
2023-04-09T08:27:20.324Z,10.45
2023-04-09T08:30:06.067Z,17.38
2023-04-09T08:32:51.454Z,16.67
2023-04-09T08:35:38.305Z,19.38
2023-04-09T08:38:23.794Z,14.10
2023-04-09T08:41:18.145Z,22.88
2023-04-09T08:44:03.808Z,19.88
2023-04-09T08:46:49.951Z,18.88
2023-04-09T08:49:35.445Z,11.07
2023-04-09T08:52:33.965Z,12.63
2023-04-09T08:55:19.512Z,17.48
2023-04-09T08:58:07.444Z,11.23
2023-04-09T09:00:52.911Z,21.70
2023-04-09T09:03:59.794Z,11.93
2023-04-09T09:06:45.874Z,9.75
2023-04-09T09:09:31.344Z,14.07
2023-04-09T09:12:35.343Z,6.57
2023-04-09T09:15:29.314Z,11.65
2023-04-09T09:18:14.942Z,9.32
2023-04-09T09:21:14.069Z,9.70
2023-04-09T09:23:59.856Z,10.95
2023-04-09T09:26:45.385Z,12.77
2023-04-09T09:29:31.886Z,11.20
2023-04-09T09:32:17.731Z,12.50
2023-04-09T09:35:06.128Z,12.68
2023-04-09T09:38:02.906Z,10.70
2023-04-09T09:40:49.989Z,13.63
2023-04-09T09:43:44.588Z,11.02
2023-04-09T09:46:35.954Z,11.80
2023-04-09T09:49:21.629Z,17.80
2023-04-09T09:52:11.583Z,15.05
2023-04-09T09:55:01.750Z,14.98
2023-04-09T09:57:48.171Z,12.65
2023-04-09T10:00:37.138Z,8.95
2023-04-09T10:03:28.278Z,6.88
2023-04-09T10:06:14.577Z,13.32
2023-04-09T10:09:03.918Z,13.30
2023-04-09T10:11:49.697Z,14.75
2023-04-09T10:14:36.103Z,17.67
2023-04-09T10:17:22.232Z,17.05
2023-04-09T10:20:16.038Z,22.77
2023-04-09T10:23:06.294Z,15.27
2023-04-09T10:25:52.235Z,19.35
2023-04-09T10:28:38.408Z,15.23
2023-04-09T10:31:24.084Z,15.55
2023-04-09T10:34:10.798Z,21.75
2023-04-09T10:36:57.993Z,17.67
2023-04-09T10:39:48.102Z,24.05
2023-04-09T10:42:37.310Z,20.88
2023-04-09T10:45:22.807Z,20.15
2023-04-09T10:48:16.179Z,21.55
2023-04-09T10:51:06.618Z,22.33
2023-04-09T10:53:54.319Z,22.83
2023-04-09T10:56:39.841Z,16.83
2023-04-09T10:59:25.518Z,18.77
2023-04-09T11:02:31.155Z,16.27
2023-04-09T11:05:32.913Z,18.08
2023-04-09T11:08:18.604Z,18.95
2023-04-09T11:11:04.742Z,17.08
2023-04-09T11:13:50.017Z,16.95
2023-04-09T11:16:35.853Z,21.45
2023-04-09T11:19:21.389Z,10.70
2023-04-09T11:22:07.063Z,20.25
2023-04-09T11:24:54.022Z,23.90
2023-04-09T11:27:39.622Z,20.83
2023-04-09T11:30:25.046Z,14.48
2023-04-09T11:33:10.848Z,27.92
2023-04-09T11:35:56.530Z,17.23
2023-04-09T11:38:41.937Z,21.73
2023-04-09T11:41:33.254Z,25.13
2023-04-09T11:44:18.504Z,25.60
2023-04-09T11:47:04.639Z,20.75
2023-04-09T11:49:50.723Z,18.38
2023-04-09T11:52:36.799Z,29.45
2023-04-09T11:55:27.218Z,14.73
2023-04-09T11:58:13.475Z,13.45
2023-04-09T12:00:59.142Z,13.50
2023-04-09T12:03:44.863Z,11.52
2023-04-09T12:06:31.220Z,16.15
2023-04-09T12:09:16.620Z,19.80
2023-04-09T12:12:02.488Z,17.40
2023-04-09T12:14:47.868Z,18.65
2023-04-09T12:17:34.403Z,15.95
2023-04-09T12:20:36.856Z,11.52
2023-04-09T12:26:07.738Z,13.18
2023-04-09T12:28:53.348Z,15.02
2023-04-09T12:31:38.991Z,15.27
2023-04-09T12:34:24.565Z,16.98
2023-04-09T12:37:09.887Z,14.38
2023-04-09T12:39:55.445Z,12.13
2023-04-09T12:42:45.591Z,15.02
2023-04-09T12:45:30.997Z,15.95
2023-04-09T12:48:16.675Z,17.85
2023-04-09T12:51:02.912Z,12.88
2023-04-09T12:53:48.462Z,13.57
2023-04-09T12:56:33.942Z,14.68
2023-04-09T12:59:19.008Z,20.52
2023-04-09T13:02:04.337Z,23.65
2023-04-09T13:04:51.316Z,14.02
2023-04-09T13:07:36.875Z,12.00
2023-04-09T13:10:22.202Z,14.63
2023-04-09T13:13:12.338Z,10.02
2023-04-09T13:15:57.776Z,15.65
2023-04-09T13:18:43.098Z,21.38
2023-04-09T13:21:28.501Z,17.08
2023-04-09T13:24:13.833Z,16.63
2023-04-09T13:26:59.337Z,12.35
2023-04-09T13:29:44.634Z,13.82
2023-04-09T13:32:30.113Z,13.35
2023-04-09T13:35:15.445Z,9.48
2023-04-09T13:38:01.104Z,18.55
2023-04-09T13:40:46.600Z,18.88
2023-04-09T13:43:31.870Z,12.52
2023-04-09T13:46:17.577Z,14.70
2023-04-09T13:49:03.342Z,14.27
2023-04-09T13:51:50.277Z,16.08
2023-04-09T13:54:36.321Z,14.68
2023-04-09T13:57:21.840Z,19.20
2023-04-09T14:00:08.278Z,16.17
2023-04-09T14:02:53.950Z,17.48
2023-04-09T14:05:39.510Z,29.50
2023-04-09T14:08:24.909Z,21.80
2023-04-09T14:11:13.992Z,21.83
2023-04-09T14:13:59.591Z,19.88
2023-04-09T14:16:44.867Z,33.03
2023-04-09T14:19:30.461Z,31.83
2023-04-09T14:22:16.413Z,23.90
2023-04-09T14:25:02.042Z,26.48
2023-04-09T14:27:47.513Z,19.98
2023-04-09T14:30:32.996Z,26.73
2023-04-09T14:33:18.294Z,16.02
2023-04-09T14:36:03.880Z,30.05
2023-04-09T14:38:49.489Z,30.67
2023-04-09T14:41:36.712Z,16.33
2023-04-09T14:44:22.506Z,22.67
2023-04-09T14:47:08.171Z,21.95
2023-04-09T14:49:53.969Z,20.70
2023-04-09T14:52:39.559Z,17.27
2023-04-09T14:55:25.987Z,21.55
2023-04-09T14:58:12.009Z,14.98
2023-04-09T15:00:57.701Z,14.40
2023-04-09T15:03:45.023Z,15.68
2023-04-09T15:06:32.318Z,12.77
2023-04-09T15:09:18.070Z,13.77
2023-04-09T15:12:03.765Z,9.82
2023-04-09T15:14:49.514Z,13.82
2023-04-09T15:17:35.154Z,11.30
2023-04-09T15:20:20.853Z,11.25
2023-04-09T15:23:06.747Z,7.80
2023-04-09T15:25:52.290Z,12.77
2023-04-09T15:28:37.731Z,15.02
2023-04-09T15:31:23.002Z,13.15
2023-04-09T15:34:08.820Z,16.20
2023-04-09T15:36:54.551Z,12.35
2023-04-09T15:39:40.055Z,9.05
2023-04-09T15:42:25.883Z,11.80
2023-04-09T15:45:11.387Z,8.45
2023-04-09T15:47:57.074Z,7.30
2023-04-09T15:50:42.296Z,11.23
2023-04-09T15:53:29.196Z,10.57
2023-04-09T15:56:15.442Z,10.48
2023-04-09T15:59:02.286Z,9.60
2023-04-09T16:01:47.676Z,7.95
2023-04-09T16:04:33.219Z,11.48
2023-04-09T16:07:18.402Z,9.55
2023-04-09T16:10:04.803Z,9.55
2023-04-09T16:12:50.234Z,10.77
2023-04-09T16:15:36.127Z,16.45
2023-04-09T16:18:21.674Z,11.48
2023-04-09T16:21:07.261Z,12.48
2023-04-09T16:23:52.852Z,15.05
2023-04-09T16:26:40.396Z,10.40
2023-04-09T16:29:25.780Z,9.13
2023-04-09T16:32:11.532Z,13.45
2023-04-09T16:35:00.876Z,12.63
2023-04-09T16:37:46.508Z,9.18
2023-04-09T16:40:31.864Z,14.02
2023-04-09T16:43:17.373Z,13.00
2023-04-09T16:46:02.661Z,5.82
2023-04-09T16:48:48.135Z,9.20
2023-04-09T16:51:33.391Z,8.32
2023-04-09T16:54:19.033Z,11.63
2023-04-09T16:57:04.649Z,10.63
2023-04-09T16:59:50.114Z,7.53
2023-04-09T17:02:36.790Z,5.13
2023-04-09T17:05:22.611Z,20.73
2023-04-09T17:08:08.145Z,9.18
2023-04-09T17:11:01.807Z,12.55
2023-04-09T17:13:47.296Z,6.43
2023-04-09T17:16:33.307Z,7.55
2023-04-09T17:19:18.924Z,5.93
2023-04-09T17:22:05.020Z,7.53
2023-04-09T17:24:50.624Z,9.73
2023-04-09T17:27:36.269Z,6.20
2023-04-09T17:30:21.881Z,4.97
2023-04-09T17:33:07.522Z,8.18
2023-04-09T17:35:53.133Z,12.30
2023-04-09T17:38:38.534Z,15.90
2023-04-09T17:41:24.196Z,23.05
2023-04-09T17:44:09.788Z,27.83
2023-04-09T17:46:55.152Z,18.67
2023-04-09T17:49:40.605Z,16.02
2023-04-09T17:52:26.076Z,14.35
2023-04-09T17:55:13.183Z,13.20
2023-04-09T17:57:58.606Z,9.63
2023-04-09T18:00:44.415Z,15.77
2023-04-09T18:03:30.044Z,11.20
2023-04-09T18:06:15.834Z,13.23
2023-04-09T18:09:01.491Z,15.93
2023-04-09T18:11:47.328Z,15.73
2023-04-09T18:14:32.753Z,10.60
2023-04-09T18:17:18.222Z,10.25
2023-04-09T18:20:03.599Z,12.90
2023-04-09T18:22:49.662Z,13.70
2023-04-09T18:25:35.144Z,20.27
2023-04-09T18:28:20.748Z,15.52
2023-04-09T18:31:06.497Z,17.92
2023-04-09T18:33:52.429Z,10.35
2023-04-09T18:36:37.991Z,8.75
2023-04-09T18:39:23.511Z,12.05
2023-04-09T18:42:09.386Z,9.55
2023-04-09T18:44:55.011Z,7.00
2023-04-09T18:47:40.817Z,14.02
2023-04-09T18:50:26.491Z,16.38
2023-04-09T18:53:12.205Z,9.93
2023-04-09T18:55:57.639Z,7.63
2023-04-09T18:58:43.031Z,18.23
2023-04-09T19:01:28.506Z,8.70
2023-04-09T19:04:14.239Z,6.55
2023-04-09T19:06:59.654Z,9.60
2023-04-09T19:09:44.969Z,6.68
2023-04-09T19:12:30.512Z,7.03
2023-04-09T19:15:16.132Z,6.68
2023-04-09T19:18:01.926Z,9.35
2023-04-09T19:20:48.008Z,10.57
2023-04-09T19:23:36.523Z,8.73
2023-04-09T19:26:22.304Z,3.55
2023-04-09T19:29:08.345Z,11.18
2023-04-09T19:31:53.670Z,7.00
2023-04-09T19:34:39.499Z,7.63
2023-04-09T19:37:28.023Z,6.55
2023-04-09T19:40:15.593Z,6.47
2023-04-09T19:43:01.691Z,7.13
2023-04-09T19:45:47.283Z,5.07
2023-04-09T19:48:32.979Z,9.38
2023-04-09T19:51:20.113Z,7.05
2023-04-09T19:54:05.841Z,3.97
2023-04-09T19:56:51.471Z,5.68
2023-04-09T19:59:39.839Z,3.88
2023-04-09T20:02:25.644Z,5.05
2023-04-09T20:05:11.680Z,6.10
2023-04-09T20:07:57.377Z,10.35
2023-04-09T20:10:45.044Z,6.38
2023-04-09T20:13:30.758Z,3.50
2023-04-09T20:16:16.160Z,4.22
2023-04-09T20:19:01.545Z,7.53
2023-04-09T20:21:46.965Z,7.05
2023-04-09T20:24:32.383Z,8.18
2023-04-09T20:27:18.547Z,9.82
2023-04-09T20:30:04.643Z,5.22
2023-04-09T20:32:50.338Z,11.88
2023-04-09T20:35:36.578Z,7.70
2023-04-09T20:38:22.425Z,11.05
2023-04-09T20:41:07.898Z,6.32
2023-04-09T20:43:53.114Z,6.93
2023-04-09T20:46:38.635Z,6.05
2023-04-09T20:49:24.091Z,12.77
2023-04-09T20:52:09.984Z,12.65
2023-04-09T20:54:57.106Z,6.68
2023-04-09T20:57:42.735Z,6.93
2023-04-09T21:00:27.975Z,5.18
2023-04-09T21:03:14.415Z,4.00
2023-04-09T21:06:00.367Z,3.33
2023-04-09T21:08:46.086Z,7.85
2023-04-09T21:11:31.605Z,5.82
2023-04-09T21:14:16.984Z,12.82
2023-04-09T21:17:02.558Z,8.77
2023-04-09T21:19:49.393Z,5.18
2023-04-09T21:22:35.421Z,6.90
2023-04-09T21:25:21.211Z,6.22
2023-04-09T21:28:07.164Z,6.45
2023-04-09T21:30:52.613Z,5.45
2023-04-09T21:33:39.277Z,8.40
2023-04-09T21:36:26.610Z,6.85
2023-04-09T21:39:12.558Z,8.85
2023-04-09T21:41:58.298Z,3.00
2023-04-09T21:44:43.465Z,6.15
2023-04-09T21:47:28.766Z,6.07
2023-04-09T21:50:14.742Z,7.57
2023-04-09T21:53:00.748Z,5.85
2023-04-09T21:55:46.434Z,3.80
2023-04-09T21:58:31.807Z,7.22
2023-04-09T22:01:26.516Z,1.95
2023-04-09T22:04:14.822Z,4.97
2023-04-09T22:07:00.396Z,4.90
2023-04-09T22:09:45.865Z,4.13
2023-04-09T22:12:31.252Z,2.08
2023-04-09T22:15:17.215Z,1.05
2023-04-09T22:18:02.957Z,2.17
2023-04-09T22:20:48.631Z,2.03
2023-04-09T22:23:33.848Z,3.22
2023-04-09T22:26:19.831Z,1.58
2023-04-09T22:29:06.818Z,0.90
2023-04-09T22:31:52.642Z,1.88
2023-04-09T22:34:38.309Z,1.17
2023-04-09T22:37:23.589Z,4.57
2023-04-09T22:40:14.366Z,3.50
2023-04-09T22:43:00.141Z,5.10
2023-04-09T22:45:53.395Z,0.82
2023-04-09T22:48:44.476Z,2.65
2023-04-09T22:51:41.736Z,1.45
2023-04-09T22:54:27.252Z,1.58
2023-04-09T22:57:12.471Z,1.30
2023-04-09T22:59:57.965Z,0.68
2023-04-09T23:02:43.496Z,1.30
2023-04-09T23:05:29.117Z,2.15
2023-04-09T23:08:14.632Z,0.52
2023-04-09T23:10:59.848Z,1.02
2023-04-09T23:13:45.399Z,0.32
2023-04-09T23:16:31.187Z,0.88
2023-04-09T23:19:16.517Z,1.45
2023-04-09T23:22:02.034Z,0.45
2023-04-09T23:24:47.493Z,1.02
2023-04-09T23:27:32.821Z,0.60
2023-04-09T23:30:18.332Z,3.63
2023-04-09T23:33:04.050Z,0.30
2023-04-09T23:35:49.816Z,4.65
2023-04-09T23:38:35.452Z,1.23
2023-04-09T23:41:21.074Z,3.35
2023-04-09T23:44:06.455Z,4.93
2023-04-09T23:46:53.278Z,4.38
2023-04-09T23:49:38.821Z,8.23
2023-04-09T23:52:26.145Z,3.15
2023-04-09T23:55:12.143Z,5.85
2023-04-09T23:57:57.845Z,11.25
